createdAt,value
2022-09-09T00:00:18.238Z,4.35
2022-09-09T00:02:54.046Z,4.68
2022-09-09T00:05:28.563Z,4.35
2022-09-09T00:07:57.052Z,4.53
2022-09-09T00:10:37.548Z,4.35
2022-09-09T00:13:25.081Z,4.03
2022-09-09T00:16:00.996Z,4.70
2022-09-09T00:18:47.001Z,4.20
2022-09-09T00:21:18.329Z,4.07
2022-09-09T00:23:55.715Z,4.32
2022-09-09T00:26:45.340Z,4.35
2022-09-09T00:29:36.350Z,4.63
2022-09-09T00:32:13.973Z,4.40
2022-09-09T00:34:52.283Z,4.55
2022-09-09T00:37:21.062Z,4.68
2022-09-09T00:39:49.100Z,4.72
2022-09-09T00:42:19.346Z,4.22
2022-09-09T00:44:55.259Z,5.28
2022-09-09T00:47:51.586Z,4.82
2022-09-09T00:50:35.877Z,5.15
2022-09-09T00:53:19.403Z,4.50
2022-09-09T00:55:49.265Z,4.60
2022-09-09T00:58:16.028Z,4.90
2022-09-09T01:00:46.480Z,4.70
2022-09-09T01:03:23.215Z,4.85
2022-09-09T01:05:59.259Z,4.78
2022-09-09T01:08:47.595Z,5.18
2022-09-09T01:11:22.427Z,4.88
2022-09-09T01:13:55.358Z,4.38
2022-09-09T01:16:22.345Z,4.90
2022-09-09T01:18:50.970Z,4.80
2022-09-09T01:21:42.291Z,4.90
2022-09-09T01:24:19.440Z,4.50
2022-09-09T01:27:02.537Z,4.80
2022-09-09T01:29:29.923Z,5.85
2022-09-09T01:31:58.414Z,5.07
2022-09-09T01:34:28.717Z,5.38
2022-09-09T01:37:07.332Z,5.50
2022-09-09T01:39:36.489Z,5.65
2022-09-09T01:42:09.402Z,5.28
2022-09-09T01:44:37.246Z,5.25
2022-09-09T01:47:05.371Z,5.38
2022-09-09T01:49:33.792Z,5.40
2022-09-09T01:52:07.134Z,5.55
2022-09-09T01:54:37.370Z,5.70
2022-09-09T01:57:26.006Z,5.93
2022-09-09T01:59:53.305Z,5.70
2022-09-09T02:02:29.519Z,6.20
2022-09-09T02:05:38.580Z,5.68
2022-09-09T02:08:22.417Z,5.57
2022-09-09T02:10:59.647Z,5.57
2022-09-09T02:13:38.175Z,6.13
2022-09-09T02:16:22.078Z,5.63
2022-09-09T02:18:50.506Z,5.38
2022-09-09T02:21:20.442Z,5.95
2022-09-09T02:23:48.989Z,5.72
2022-09-09T02:26:21.309Z,5.90
2022-09-09T02:28:52.572Z,5.45
2022-09-09T02:31:21.661Z,5.07
2022-09-09T02:33:55.818Z,5.38
2022-09-09T02:36:24.868Z,4.72
2022-09-09T02:38:54.884Z,4.88
2022-09-09T02:41:29.290Z,5.13
2022-09-09T02:43:58.032Z,5.78
2022-09-09T02:46:50.287Z,5.43
2022-09-09T02:49:56.888Z,5.05
2022-09-09T02:52:48.168Z,5.18
2022-09-09T02:55:24.804Z,4.97
2022-09-09T02:57:54.547Z,5.05
2022-09-09T03:00:27.295Z,5.32
2022-09-09T03:02:55.740Z,5.38
2022-09-09T03:05:22.704Z,4.80
2022-09-09T03:07:51.705Z,4.25
2022-09-09T03:10:20.335Z,4.68
2022-09-09T03:12:47.452Z,5.22
2022-09-09T03:15:15.812Z,5.30
2022-09-09T03:17:42.767Z,4.50
2022-09-09T03:20:09.969Z,4.90
2022-09-09T03:22:38.216Z,4.90
2022-09-09T03:25:05.578Z,4.93
2022-09-09T03:27:33.821Z,5.30
2022-09-09T03:30:04.877Z,4.55
2022-09-09T03:32:32.500Z,4.75
2022-09-09T03:34:59.334Z,4.70
2022-09-09T03:37:26.527Z,4.30
2022-09-09T03:39:55.639Z,4.22
2022-09-09T03:42:23.540Z,4.53
2022-09-09T03:44:53.614Z,4.82
2022-09-09T03:47:23.654Z,4.82
2022-09-09T03:49:54.260Z,4.93
2022-09-09T03:52:23.872Z,4.43
2022-09-09T03:54:52.550Z,5.05
2022-09-09T03:57:20.197Z,4.60
2022-09-09T03:59:46.958Z,4.85
2022-09-09T04:02:13.727Z,4.38
2022-09-09T04:04:40.807Z,4.63
2022-09-09T04:07:08.055Z,4.72
2022-09-09T04:09:35.899Z,4.55
2022-09-09T04:12:03.142Z,4.10
2022-09-09T04:14:30.862Z,4.50
2022-09-09T04:16:59.492Z,4.90
2022-09-09T04:19:26.934Z,4.80
2022-09-09T04:21:54.321Z,4.82
2022-09-09T04:24:22.793Z,4.90
2022-09-09T04:26:50.282Z,4.57
2022-09-09T04:29:17.678Z,4.63
2022-09-09T04:31:44.512Z,4.15
2022-09-09T04:34:11.381Z,4.25
2022-09-09T04:36:38.367Z,4.55
2022-09-09T04:39:06.312Z,4.47
2022-09-09T04:41:33.184Z,4.53
2022-09-09T04:44:01.855Z,4.63
2022-09-09T04:46:28.664Z,4.07
2022-09-09T04:48:55.574Z,4.78
2022-09-09T04:51:26.607Z,4.60
2022-09-09T04:53:55.215Z,4.57
2022-09-09T04:56:22.331Z,4.38
2022-09-09T04:58:54.772Z,4.47
2022-09-09T05:01:25.843Z,4.80
2022-09-09T05:03:54.735Z,4.57
2022-09-09T05:06:23.697Z,4.55
2022-09-09T05:08:54.996Z,4.38
2022-09-09T05:11:27.983Z,4.57
2022-09-09T05:13:59.708Z,4.32
2022-09-09T05:16:27.715Z,4.25
2022-09-09T05:18:55.313Z,3.70
2022-09-09T05:21:24.241Z,3.72
2022-09-09T05:23:52.437Z,4.35
2022-09-09T05:26:22.077Z,4.40
2022-09-09T05:28:50.730Z,4.97
2022-09-09T05:31:19.106Z,4.40
2022-09-09T05:33:50.529Z,4.25
2022-09-09T05:36:21.783Z,4.15
2022-09-09T05:38:54.841Z,4.30
2022-09-09T05:41:22.130Z,3.85
2022-09-09T05:43:49.924Z,4.28
2022-09-09T05:46:21.973Z,4.50
2022-09-09T05:48:52.608Z,4.20
2022-09-09T05:51:23.096Z,4.05
2022-09-09T05:53:50.242Z,4.82
2022-09-09T05:56:19.844Z,4.10
2022-09-09T05:58:48.081Z,4.10
2022-09-09T06:01:17.890Z,4.32
2022-09-09T06:03:46.451Z,4.00
2022-09-09T06:06:15.406Z,4.53
2022-09-09T06:08:45.337Z,3.90
2022-09-09T06:11:22.694Z,4.05
2022-09-09T06:13:54.548Z,3.92
2022-09-09T06:16:26.331Z,3.70
2022-09-09T06:18:55.023Z,3.70
2022-09-09T06:21:28.892Z,4.13
2022-09-09T06:24:00.199Z,4.03
2022-09-09T06:26:33.867Z,3.67
2022-09-09T06:29:03.547Z,4.03
2022-09-09T06:31:31.878Z,3.92
2022-09-09T06:34:03.292Z,3.88
2022-09-09T06:36:32.441Z,3.88
2022-09-09T06:38:59.382Z,3.65
2022-09-09T06:41:28.190Z,3.42
2022-09-09T06:43:56.630Z,3.50
2022-09-09T06:46:34.395Z,3.70
2022-09-09T06:49:01.901Z,3.53
2022-09-09T06:51:30.711Z,3.63
2022-09-09T06:53:59.440Z,3.13
2022-09-09T06:56:29.251Z,3.20
2022-09-09T06:59:05.741Z,3.22
2022-09-09T07:01:38.801Z,3.00
2022-09-09T07:04:10.142Z,3.47
2022-09-09T07:06:45.488Z,3.00
2022-09-09T07:09:17.158Z,2.80
2022-09-09T07:11:52.689Z,2.63
2022-09-09T07:14:21.021Z,2.70
2022-09-09T07:16:54.532Z,2.70
2022-09-09T07:19:24.850Z,2.63
2022-09-09T07:21:53.773Z,2.50
2022-09-09T07:24:23.036Z,2.80
2022-09-09T07:26:49.878Z,2.25
2022-09-09T07:29:20.553Z,2.20
2022-09-09T07:31:48.759Z,2.10
2022-09-09T07:34:20.180Z,2.40
2022-09-09T07:36:47.822Z,1.73
2022-09-09T07:39:15.701Z,2.17
2022-09-09T07:41:49.448Z,1.92
2022-09-09T07:44:22.543Z,2.15
2022-09-09T07:46:52.477Z,1.77
2022-09-09T07:49:29.747Z,2.55
2022-09-09T07:51:59.859Z,2.05
2022-09-09T07:54:27.351Z,2.28
2022-09-09T07:56:54.411Z,2.28
2022-09-09T07:59:25.240Z,1.70
2022-09-09T08:01:55.850Z,2.22
2022-09-09T08:04:27.246Z,1.80
2022-09-09T08:06:57.102Z,1.90
2022-09-09T08:09:28.117Z,1.67
2022-09-09T08:11:57.940Z,1.73
2022-09-09T08:14:24.933Z,1.60
2022-09-09T08:16:54.931Z,1.70
2022-09-09T08:19:24.599Z,1.70
2022-09-09T08:21:52.739Z,1.70
2022-09-09T08:24:20.742Z,1.92
2022-09-09T08:26:50.471Z,1.80
2022-09-09T08:29:20.571Z,2.50
2022-09-09T08:31:55.615Z,1.60
2022-09-09T08:34:23.180Z,1.52
2022-09-09T08:36:51.986Z,1.60
2022-09-09T08:39:22.918Z,1.30
2022-09-09T08:42:01.758Z,1.45
2022-09-09T08:44:39.084Z,1.33
2022-09-09T08:47:35.877Z,1.50
2022-09-09T08:50:35.132Z,1.48
2022-09-09T08:53:21.324Z,1.73
2022-09-09T08:55:51.223Z,1.60
2022-09-09T08:58:25.924Z,2.15
2022-09-09T09:01:10.786Z,1.50
2022-09-09T09:03:54.436Z,1.70
2022-09-09T09:06:34.585Z,1.70
2022-09-09T09:09:19.701Z,1.60
2022-09-09T09:11:53.589Z,1.58
2022-09-09T09:14:24.666Z,1.20
2022-09-09T09:16:57.430Z,1.35
2022-09-09T09:19:27.250Z,1.20
2022-09-09T09:22:11.322Z,1.60
2022-09-09T09:24:43.535Z,1.35
2022-09-09T09:27:15.801Z,1.20
2022-09-09T09:30:17.494Z,1.27
2022-09-09T09:32:37.633Z,1.25
2022-09-09T09:35:11.376Z,1.40
2022-09-09T09:40:25.560Z,1.10
2022-09-09T09:42:53.765Z,1.00
2022-09-09T09:45:35.223Z,0.70
2022-09-09T09:48:07.799Z,0.82
2022-09-09T09:50:36.934Z,0.70
2022-09-09T09:53:05.571Z,0.70
2022-09-09T09:55:38.102Z,0.55
2022-09-09T09:58:17.945Z,0.80
2022-09-09T10:00:50.777Z,1.20
2022-09-09T10:03:32.708Z,1.00
2022-09-09T10:06:01.743Z,0.90
2022-09-09T10:08:29.324Z,1.05
2022-09-09T10:11:15.749Z,1.00
2022-09-09T10:13:56.802Z,1.08
2022-09-09T10:16:47.604Z,1.02
2022-09-09T10:19:17.287Z,1.20
2022-09-09T10:21:44.072Z,0.80
2022-09-09T10:24:42.655Z,1.05
2022-09-09T10:27:26.922Z,0.90
2022-09-09T10:30:21.242Z,0.85
2022-09-09T10:32:53.861Z,0.80
2022-09-09T10:35:28.576Z,0.88
2022-09-09T10:38:04.447Z,1.00
2022-09-09T10:40:54.396Z,0.80
2022-09-09T10:43:27.070Z,0.70
2022-09-09T10:46:37.273Z,0.80
2022-09-09T10:49:25.390Z,0.60
2022-09-09T10:52:15.480Z,0.70
2022-09-09T10:54:57.551Z,0.70
2022-09-09T10:57:51.443Z,0.65
2022-09-09T11:00:20.785Z,0.80
2022-09-09T11:02:59.858Z,0.68
2022-09-09T11:05:46.024Z,0.70
2022-09-09T11:11:50.969Z,0.70
2022-09-09T11:14:43.664Z,0.90
2022-09-09T11:17:14.238Z,0.65
2022-09-09T11:19:43.874Z,0.93
2022-09-09T11:22:35.605Z,0.50
2022-09-09T11:25:17.651Z,0.70
2022-09-09T11:27:50.658Z,0.57
2022-09-09T11:30:44.196Z,0.60
2022-09-09T11:33:39.124Z,0.50
2022-09-09T11:36:26.253Z,0.60
2022-09-09T11:38:54.583Z,0.85
2022-09-09T11:41:22.236Z,0.80
2022-09-09T11:43:52.911Z,0.50
2022-09-09T11:46:22.390Z,0.45
2022-09-09T11:49:27.862Z,0.70
2022-09-09T11:51:55.918Z,0.65
2022-09-09T11:54:32.461Z,0.52
2022-09-09T11:56:59.714Z,0.60
2022-09-09T11:59:31.498Z,0.50
2022-09-09T12:02:05.532Z,0.73
2022-09-09T12:04:35.856Z,0.50
2022-09-09T12:07:25.615Z,0.50
2022-09-09T12:10:03.343Z,0.60
2022-09-09T12:12:32.832Z,0.98
2022-09-09T12:15:18.721Z,0.75
2022-09-09T12:17:47.798Z,0.68
2022-09-09T12:20:17.307Z,0.50
2022-09-09T12:23:01.843Z,0.50
2022-09-09T12:25:53.862Z,0.40
2022-09-09T12:28:43.091Z,0.95
2022-09-09T12:31:19.144Z,0.43
2022-09-09T12:33:48.306Z,0.70
2022-09-09T12:36:20.723Z,0.40
2022-09-09T12:38:47.792Z,0.40
2022-09-09T12:41:28.179Z,0.50
2022-09-09T12:44:07.112Z,0.50
2022-09-09T12:46:37.731Z,0.40
2022-09-09T12:49:05.572Z,0.73
2022-09-09T12:51:33.570Z,0.63
2022-09-09T12:54:00.916Z,0.80
2022-09-09T12:56:31.189Z,0.70
2022-09-09T12:58:59.383Z,0.50
2022-09-09T13:01:31.995Z,0.68
2022-09-09T13:03:59.378Z,0.52
2022-09-09T13:06:31.071Z,0.50
2022-09-09T13:09:00.396Z,0.75
2022-09-09T13:11:29.371Z,0.68
2022-09-09T13:13:57.569Z,0.50
2022-09-09T13:16:31.211Z,0.47
2022-09-09T13:18:59.257Z,0.55
2022-09-09T13:21:36.142Z,0.70
2022-09-09T13:24:07.291Z,0.75
2022-09-09T13:26:35.346Z,0.70
2022-09-09T13:29:19.067Z,0.63
2022-09-09T13:31:46.095Z,0.77
2022-09-09T13:34:28.317Z,0.60
2022-09-09T13:37:00.840Z,0.98
2022-09-09T13:39:27.637Z,0.60
2022-09-09T13:41:54.859Z,0.52
2022-09-09T13:44:27.225Z,1.10
2022-09-09T13:47:09.396Z,0.70
2022-09-09T13:49:36.965Z,0.60
2022-09-09T13:52:10.019Z,0.50
2022-09-09T13:54:36.725Z,0.40
2022-09-09T13:57:03.679Z,0.70
2022-09-09T13:59:54.041Z,0.50
2022-09-09T14:02:20.146Z,0.50
2022-09-09T14:04:51.776Z,0.60
2022-09-09T14:07:19.330Z,0.50
2022-09-09T14:09:50.885Z,0.60
2022-09-09T14:12:17.922Z,0.70
2022-09-09T14:14:44.978Z,1.33
2022-09-09T14:17:11.941Z,0.82
2022-09-09T14:19:38.707Z,0.75
2022-09-09T14:22:05.555Z,0.60
2022-09-09T14:24:33.739Z,0.50
2022-09-09T14:27:00.529Z,0.70
2022-09-09T14:29:27.737Z,0.50
2022-09-09T14:31:54.526Z,0.57
2022-09-09T14:34:21.366Z,0.40
2022-09-09T14:36:48.528Z,0.40
2022-09-09T14:39:15.238Z,0.50
2022-09-09T14:41:41.956Z,1.08
2022-09-09T14:44:09.657Z,0.63
2022-09-09T14:46:36.340Z,0.70
2022-09-09T14:49:03.074Z,0.70
2022-09-09T14:51:29.870Z,0.65
2022-09-09T14:53:59.930Z,0.90
2022-09-09T14:56:30.762Z,0.63
2022-09-09T14:58:59.688Z,0.77
2022-09-09T15:01:30.571Z,0.65
2022-09-09T15:04:02.212Z,0.60
2022-09-09T15:06:31.263Z,0.75
2022-09-09T15:09:01.502Z,0.80
2022-09-09T15:11:31.654Z,0.80
2022-09-09T15:13:59.303Z,0.70
2022-09-09T15:16:28.840Z,1.35
2022-09-09T15:18:57.733Z,0.70
2022-09-09T15:21:27.723Z,0.95
2022-09-09T15:23:54.963Z,0.70
2022-09-09T15:26:22.031Z,0.90
2022-09-09T15:28:50.995Z,0.77
2022-09-09T15:31:20.707Z,1.00
2022-09-09T15:33:52.348Z,0.73
2022-09-09T15:36:27.529Z,0.77
2022-09-09T15:38:55.800Z,1.08
2022-09-09T15:41:23.628Z,0.82
2022-09-09T15:43:52.925Z,0.95
2022-09-09T15:46:25.803Z,0.70
2022-09-09T15:48:54.366Z,0.63
2022-09-09T15:51:41.674Z,0.98
2022-09-09T15:54:10.670Z,0.70
2022-09-09T15:56:37.403Z,0.68
2022-09-09T15:59:04.512Z,0.77
2022-09-09T16:01:32.193Z,1.00
2022-09-09T16:04:00.023Z,0.50
2022-09-09T16:06:29.383Z,0.43
2022-09-09T16:08:57.543Z,0.60
2022-09-09T16:11:26.589Z,0.70
2022-09-09T16:13:54.803Z,0.60
2022-09-09T16:16:23.687Z,0.80
2022-09-09T16:18:53.107Z,0.70
2022-09-09T16:21:20.410Z,0.50
2022-09-09T16:23:47.241Z,0.73
2022-09-09T16:26:15.763Z,0.80
2022-09-09T16:28:43.081Z,0.68
2022-09-09T16:31:12.339Z,0.70
2022-09-09T16:33:39.068Z,0.57
2022-09-09T16:36:07.868Z,0.88
2022-09-09T16:38:34.819Z,0.80
2022-09-09T16:41:02.103Z,0.95
2022-09-09T16:43:28.844Z,1.15
2022-09-09T16:45:55.630Z,1.15
2022-09-09T16:48:22.491Z,0.80
2022-09-09T16:50:50.102Z,0.75
2022-09-09T16:53:16.791Z,0.93
2022-09-09T16:55:43.617Z,0.80
2022-09-09T16:58:12.197Z,1.67
2022-09-09T17:00:38.937Z,1.05
2022-09-09T17:03:05.710Z,1.25
2022-09-09T17:05:33.786Z,1.20
2022-09-09T17:08:00.481Z,0.93
2022-09-09T17:10:27.222Z,1.08
2022-09-09T17:12:53.965Z,1.20
2022-09-09T17:15:22.251Z,1.00
2022-09-09T17:17:51.056Z,1.50
2022-09-09T17:20:17.850Z,1.10
2022-09-09T17:22:44.710Z,1.40
2022-09-09T17:25:11.412Z,1.08
2022-09-09T17:27:38.241Z,1.00
2022-09-09T17:30:05.571Z,0.90
2022-09-09T17:32:32.244Z,1.35
2022-09-09T17:34:58.988Z,1.05
2022-09-09T17:37:25.746Z,1.00
2022-09-09T17:39:52.500Z,1.38
2022-09-09T17:42:19.405Z,1.85
2022-09-09T17:44:46.208Z,1.70
2022-09-09T17:47:12.883Z,1.20
2022-09-09T17:49:39.558Z,1.50
2022-09-09T17:52:06.983Z,1.63
2022-09-09T17:54:34.708Z,1.23
2022-09-09T17:57:01.845Z,1.00
2022-09-09T17:59:28.583Z,0.77
2022-09-09T18:01:55.621Z,0.80
2022-09-09T18:04:22.526Z,1.02
2022-09-09T18:06:51.714Z,1.08
2022-09-09T18:09:24.667Z,1.15
2022-09-09T18:11:54.694Z,0.93
2022-09-09T18:14:25.058Z,1.05
2022-09-09T18:16:52.090Z,1.30
2022-09-09T18:19:21.584Z,1.00
2022-09-09T18:21:49.431Z,1.00
2022-09-09T18:24:17.839Z,1.00
2022-09-09T18:26:45.705Z,1.08
2022-09-09T18:29:14.110Z,1.33
2022-09-09T18:31:42.698Z,1.40
2022-09-09T18:34:11.807Z,1.55
2022-09-09T18:36:42.572Z,1.10
2022-09-09T18:39:09.728Z,1.58
2022-09-09T18:41:38.502Z,1.60
2022-09-09T18:44:13.294Z,1.30
2022-09-09T18:46:41.387Z,2.10
2022-09-09T18:49:08.842Z,1.83
2022-09-09T18:51:37.202Z,1.63
2022-09-09T18:54:09.570Z,1.70
2022-09-09T18:56:37.008Z,1.70
2022-09-09T18:59:06.696Z,1.77
2022-09-09T19:01:35.801Z,1.48
2022-09-09T19:04:04.508Z,1.38
2022-09-09T19:06:32.921Z,1.00
2022-09-09T19:09:03.162Z,1.10
2022-09-09T19:11:31.228Z,1.10
2022-09-09T19:14:04.041Z,0.93
2022-09-09T19:16:33.171Z,0.80
2022-09-09T19:19:02.088Z,0.85
2022-09-09T19:21:34.210Z,0.85
2022-09-09T19:24:11.749Z,1.00
2022-09-09T19:26:45.290Z,1.05
2022-09-09T19:29:15.420Z,1.10
2022-09-09T19:32:01.994Z,1.45
2022-09-09T19:34:30.216Z,0.90
2022-09-09T19:36:57.349Z,1.10
2022-09-09T19:39:24.137Z,1.10
2022-09-09T19:41:50.837Z,1.20
2022-09-09T19:44:17.738Z,1.27
2022-09-09T19:46:46.705Z,1.13
2022-09-09T19:49:15.435Z,0.98
2022-09-09T19:51:42.450Z,1.10
2022-09-09T19:54:11.159Z,1.00
2022-09-09T19:56:39.904Z,1.23
2022-09-09T19:59:07.422Z,1.00
2022-09-09T20:01:40.028Z,1.00
2022-09-09T20:04:08.168Z,0.80
2022-09-09T20:06:42.644Z,0.85
2022-09-09T20:09:15.121Z,0.95
2022-09-09T20:11:43.339Z,0.68
2022-09-09T20:14:11.826Z,0.80
2022-09-09T20:16:38.740Z,0.52
2022-09-09T20:19:07.239Z,0.65
2022-09-09T20:21:36.796Z,0.77
2022-09-09T20:24:06.173Z,0.90
2022-09-09T20:26:35.311Z,0.65
2022-09-09T20:29:07.845Z,0.80
2022-09-09T20:31:37.179Z,0.80
2022-09-09T20:34:05.142Z,0.70
2022-09-09T20:36:34.483Z,0.82
2022-09-09T20:39:04.637Z,0.93
2022-09-09T20:41:32.601Z,0.63
2022-09-09T20:44:08.445Z,1.00
2022-09-09T20:46:37.488Z,0.82
2022-09-09T20:49:06.291Z,0.80
2022-09-09T20:51:34.264Z,0.70
2022-09-09T20:54:16.305Z,0.70
2022-09-09T20:56:44.601Z,0.63
2022-09-09T20:59:14.206Z,0.88
2022-09-09T21:01:41.547Z,1.10
2022-09-09T21:04:09.835Z,0.90
2022-09-09T21:06:36.656Z,0.75
2022-09-09T21:09:03.408Z,0.93
2022-09-09T21:11:30.146Z,1.02
2022-09-09T21:13:56.831Z,1.10
2022-09-09T21:16:23.555Z,0.90
2022-09-09T21:18:50.500Z,2.72
2022-09-09T21:21:21.284Z,1.20
2022-09-09T21:23:54.789Z,1.45
2022-09-09T21:26:22.458Z,1.63
2022-09-09T21:28:49.368Z,1.30
2022-09-09T21:31:17.194Z,1.48
2022-09-09T21:33:43.949Z,1.23
2022-09-09T21:36:11.559Z,1.02
2022-09-09T21:38:40.469Z,1.27
2022-09-09T21:41:09.156Z,0.95
2022-09-09T21:43:35.977Z,1.20
2022-09-09T21:46:07.951Z,0.90
2022-09-09T21:48:35.412Z,1.10
2022-09-09T21:51:04.578Z,1.00
2022-09-09T21:53:32.447Z,1.40
2022-09-09T21:56:07.287Z,1.55
2022-09-09T21:58:34.549Z,1.08
2022-09-09T22:01:01.641Z,1.13
2022-09-09T22:03:28.423Z,1.08
2022-09-09T22:05:56.211Z,1.25
2022-09-09T22:08:22.922Z,1.35
2022-09-09T22:10:49.646Z,1.10
2022-09-09T22:13:17.565Z,1.05
2022-09-09T22:15:45.854Z,1.40
2022-09-09T22:18:13.504Z,1.20
2022-09-09T22:20:42.758Z,1.40
2022-09-09T22:23:10.534Z,1.45
2022-09-09T22:25:38.178Z,1.25
2022-09-09T22:28:06.734Z,1.30
2022-09-09T22:30:34.034Z,1.17
2022-09-09T22:33:03.592Z,1.38
2022-09-09T22:35:30.253Z,1.30
2022-09-09T22:37:57.953Z,1.13
2022-09-09T22:40:24.990Z,1.23
2022-09-09T22:42:53.152Z,1.25
2022-09-09T22:45:21.846Z,1.13
2022-09-09T22:47:48.590Z,1.38
2022-09-09T22:50:15.404Z,1.30
2022-09-09T22:52:42.447Z,1.23
2022-09-09T22:55:09.547Z,1.58
2022-09-09T22:57:37.496Z,1.10
2022-09-09T23:00:07.990Z,1.27
2022-09-09T23:02:38.674Z,1.20
2022-09-09T23:05:09.074Z,1.48
2022-09-09T23:07:36.823Z,1.75
2022-09-09T23:10:07.085Z,1.35
2022-09-09T23:12:34.244Z,1.45
2022-09-09T23:15:01.001Z,1.20
2022-09-09T23:17:27.882Z,1.30
2022-09-09T23:19:57.680Z,1.20
2022-09-09T23:22:24.736Z,1.30
2022-09-09T23:24:52.917Z,1.45
2022-09-09T23:27:21.468Z,1.40
2022-09-09T23:29:48.955Z,1.30
2022-09-09T23:32:15.907Z,1.77
2022-09-09T23:34:42.644Z,1.48
2022-09-09T23:37:11.306Z,1.50
2022-09-09T23:39:40.486Z,1.88
2022-09-09T23:42:08.521Z,2.72
2022-09-09T23:44:38.407Z,1.95
2022-09-09T23:47:06.098Z,2.08
2022-09-09T23:49:36.812Z,1.90
2022-09-09T23:52:05.433Z,1.80
2022-09-09T23:54:33.181Z,1.45
2022-09-09T23:57:00.120Z,1.67
2022-09-09T23:59:26.886Z,1.73
